Time;durP1;ratioP1;P1;durP2;ratioP2;P2;SDS_P1;SDS_P2;PMS_P1;PMS_P2;Temp;Humidity;BMP_temperature;BMP_pressure;BME280_temperature;BME280_humidity;BME280_pressure;Samples;Min_cycle;Max_cycle;Signal;HPM_P1;HPM_P2
2024/02/03 00:02:17;;;;;;;7.30;6.50;;;;;;;;;;5039870;28;20461;-83
2024/02/03 00:04:47;;;;;;;8.57;6.93;;;;;;;;;;5024115;28;20476;-83
2024/02/03 00:07:18;;;;;;;9.13;8.23;;;;;;;;;;5026778;28;20460;-84
2024/02/03 00:09:49;;;;;;;8.57;6.60;;;;;;;;;;5024305;28;20479;-82
2024/02/03 00:12:22;;;;;;;8.73;7.50;;;;;;;;;;5022786;28;20465;-83
2024/02/03 00:14:49;;;;;;;8.73;6.90;;;;;;;;;;5035966;28;20459;-85
2024/02/03 00:17:19;;;;;;;8.23;6.13;;;;;;;;;;5014326;28;20473;-83
2024/02/03 00:19:47;;;;;;;7.90;6.97;;;;;;;;;;5019978;28;20450;-85
2024/02/03 00:22:16;;;;;;;9.90;6.97;;;;;;;;;;5024727;28;20446;-85
2024/02/03 00:24:46;;;;;;;8.57;7.07;;;;;;;;;;5045535;28;20464;-85
2024/02/03 00:27:17;;;;;;;6.57;5.97;;;;;;;;;;5035286;28;20456;-84
2024/02/03 00:29:48;;;;;;;7.47;6.67;;;;;;;;;;5049073;28;20461;-84
2024/02/03 00:32:17;;;;;;;7.60;6.87;;;;;;;;;;5029668;28;20460;-86
2024/02/03 00:34:46;;;;;;;7.80;7.00;;;;;;;;;;5023088;28;21526;-84
2024/02/03 00:37:14;;;;;;;7.50;6.70;;;;;;;;;;5040508;28;20469;-84
2024/02/03 00:39:46;;;;;;;8.10;7.30;;;;;;;;;;5040512;28;20536;-85
2024/02/03 00:42:30;;;;;;;8.53;7.13;;;;;;;;;;5032228;28;20456;-84
2024/02/03 00:45:08;;;;;;;7.10;6.40;;;;;;;;;;5022749;28;20462;-84
2024/02/03 00:47:36;;;;;;;9.27;7.60;;;;;;;;;;5015780;28;20526;-83
2024/02/03 00:50:14;;;;;;;8.20;7.17;;;;;;;;;;5028174;28;20460;-86
2024/02/03 00:52:42;;;;;;;7.97;7.10;;;;;;;;;;5014951;28;20454;-84
2024/02/03 00:55:28;;;;;;;8.60;7.67;;;;;;;;;;5030043;28;20453;-84
2024/02/03 00:57:58;;;;;;;9.10;7.50;;;;;;;;;;5014147;28;21095;-84
2024/02/03 01:00:32;;;;;;;7.13;6.43;;;;;;;;;;5025977;28;20537;-83
2024/02/03 01:03:03;;;;;;;7.73;6.90;;;;;;;;;;5021185;28;20477;-85
2024/02/03 01:05:33;;;;;;;8.50;7.30;;;;;;;;;;5025337;28;20441;-85
2024/02/03 01:08:01;;;;;;;8.40;6.67;;;;;;;;;;5021590;28;20478;-84
2024/02/03 01:10:29;;;;;;;7.43;6.50;;;;;;;;;;5018943;28;20534;-84
2024/02/03 01:13:02;;;;;;;10.33;6.57;;;;;;;;;;5021815;28;20445;-84
2024/02/03 01:15:29;;;;;;;9.33;6.97;;;;;;;;;;5020446;28;20455;-84
2024/02/03 01:17:57;;;;;;;12.20;8.30;;;;;;;;;;5020644;28;20478;-83
2024/02/03 01:20:24;;;;;;;8.47;6.77;;;;;;;;;;5022568;28;20473;-83
2024/02/03 01:22:52;;;;;;;8.73;6.63;;;;;;;;;;5028421;28;20473;-83
2024/02/03 01:25:19;;;;;;;9.17;7.20;;;;;;;;;;5031019;28;20541;-85
2024/02/03 01:27:47;;;;;;;8.77;7.73;;;;;;;;;;5028100;28;21079;-85
2024/02/03 01:30:14;;;;;;;7.57;6.77;;;;;;;;;;5039517;28;20449;-84
2024/02/03 01:32:41;;;;;;;7.40;6.70;;;;;;;;;;5041812;28;20451;-84
2024/02/03 01:35:09;;;;;;;8.80;7.03;;;;;;;;;;5029729;28;20516;-83
2024/02/03 01:37:38;;;;;;;7.90;6.40;;;;;;;;;;5021402;28;20483;-85
2024/02/03 01:40:06;;;;;;;9.57;6.53;;;;;;;;;;5030050;28;20465;-82
2024/02/03 01:42:34;;;;;;;8.43;7.13;;;;;;;;;;5016183;28;20453;-84
2024/02/03 01:45:01;;;;;;;7.03;6.33;;;;;;;;;;5014051;28;20457;-83
2024/02/03 01:47:29;;;;;;;7.43;5.40;;;;;;;;;;5024434;28;20478;-86
2024/02/03 01:49:56;;;;;;;6.00;5.30;;;;;;;;;;5009127;28;20458;-85
2024/02/03 01:52:25;;;;;;;8.60;6.83;;;;;;;;;;5009267;28;20448;-84
2024/02/03 01:54:53;;;;;;;7.50;6.00;;;;;;;;;;5003121;28;20525;-85
2024/02/03 01:57:23;;;;;;;6.53;5.43;;;;;;;;;;5007130;28;20458;-83
2024/02/03 01:59:51;;;;;;;6.07;5.17;;;;;;;;;;5013056;28;20460;-83
2024/02/03 02:02:19;;;;;;;5.43;4.03;;;;;;;;;;5008889;28;20501;-84
2024/02/03 02:04:47;;;;;;;5.77;4.83;;;;;;;;;;5027471;28;20452;-86
2024/02/03 02:07:15;;;;;;;5.40;4.70;;;;;;;;;;5010515;28;20525;-83
2024/02/03 02:09:42;;;;;;;5.47;4.37;;;;;;;;;;5017901;28;20803;-83
2024/02/03 02:12:22;;;;;;;5.87;5.17;;;;;;;;;;5005890;28;20515;-83
2024/02/03 02:14:57;;;;;;;7.50;5.83;;;;;;;;;;5017938;28;20454;-85
2024/02/03 02:17:25;;;;;;;5.50;4.40;;;;;;;;;;5028834;28;20443;-86
2024/02/03 02:20:04;;;;;;;5.13;4.63;;;;;;;;;;5017175;28;20462;-85
2024/02/03 02:22:32;;;;;;;5.20;4.40;;;;;;;;;;5020366;28;20475;-84
2024/02/03 02:25:00;;;;;;;5.93;5.33;;;;;;;;;;5010296;28;21162;-86
2024/02/03 02:27:30;;;;;;;7.37;5.77;;;;;;;;;;5008017;28;20463;-86
2024/02/03 02:29:58;;;;;;;5.83;4.77;;;;;;;;;;5024245;28;20460;-83
2024/02/03 02:32:26;;;;;;;5.50;4.60;;;;;;;;;;5023706;28;20444;-86
2024/02/03 02:34:58;;;;;;;5.00;4.50;;;;;;;;;;5029596;28;20446;-86
2024/02/03 02:37:27;;;;;;;4.13;3.80;;;;;;;;;;5027009;28;20461;-84
2024/02/03 02:39:58;;;;;;;4.33;3.83;;;;;;;;;;5011276;28;20464;-85
2024/02/03 02:42:29;;;;;;;4.83;4.33;;;;;;;;;;5006796;28;20462;-84
2024/02/03 02:44:57;;;;;;;4.70;4.20;;;;;;;;;;5006705;28;20464;-84
2024/02/03 02:47:26;;;;;;;4.93;4.23;;;;;;;;;;5004731;28;20831;-84
2024/02/03 02:49:57;;;;;;;5.60;4.90;;;;;;;;;;5022451;28;20458;-85
2024/02/03 02:52:29;;;;;;;5.73;5.13;;;;;;;;;;5020732;28;20459;-85
2024/02/03 02:54:57;;;;;;;4.63;4.07;;;;;;;;;;5004669;28;20464;-85
2024/02/03 02:57:27;;;;;;;4.53;4.10;;;;;;;;;;5002153;28;20455;-84
2024/02/03 02:59:57;;;;;;;4.23;3.80;;;;;;;;;;5003938;28;20695;-85
2024/02/03 03:02:45;;;;;;;4.53;4.07;;;;;;;;;;5002253;28;20529;-83
2024/02/03 03:05:20;;;;;;;5.17;4.50;;;;;;;;;;5003979;28;20464;-83
2024/02/03 03:07:47;;;;;;;4.60;4.20;;;;;;;;;;4998672;28;20528;-84
2024/02/03 03:10:15;;;;;;;5.30;4.20;;;;;;;;;;5001793;28;20473;-84
2024/02/03 03:12:42;;;;;;;4.07;3.67;;;;;;;;;;5004968;28;20468;-84
2024/02/03 03:15:19;;;;;;;4.77;4.20;;;;;;;;;;5008436;28;20472;-83
2024/02/03 03:17:49;;;;;;;4.93;4.30;;;;;;;;;;5027501;28;20487;-84
2024/02/03 03:20:19;;;;;;;5.17;4.30;;;;;;;;;;5022649;28;20457;-83
2024/02/03 03:22:46;;;;;;;6.07;5.17;;;;;;;;;;5033055;28;20445;-84
2024/02/03 03:25:13;;;;;;;5.40;4.73;;;;;;;;;;5049361;28;20448;-85
2024/02/03 03:27:41;;;;;;;6.53;4.30;;;;;;;;;;5030278;28;20476;-83
2024/02/03 03:30:08;;;;;;;7.93;4.50;;;;;;;;;;5046012;28;20448;-84
2024/02/03 03:32:36;;;;;;;6.67;4.90;;;;;;;;;;5016870;28;20445;-84
2024/02/03 03:35:03;;;;;;;5.43;4.40;;;;;;;;;;5029227;28;20461;-85
2024/02/03 03:37:31;;;;;;;4.63;3.77;;;;;;;;;;5024092;28;20498;-83
2024/02/03 03:39:58;;;;;;;5.20;4.40;;;;;;;;;;5003311;28;20479;-82
2024/02/03 03:42:25;;;;;;;5.27;4.30;;;;;;;;;;5008531;28;20454;-86
2024/02/03 03:44:52;;;;;;;4.97;4.47;;;;;;;;;;5025380;28;20701;-85
2024/02/03 03:47:27;;;;;;;5.57;4.43;;;;;;;;;;5021177;28;20502;-83
2024/02/03 03:49:55;;;;;;;4.80;4.30;;;;;;;;;;5011395;28;20462;-83
2024/02/03 03:52:24;;;;;;;5.07;4.20;;;;;;;;;;5020594;28;20474;-83
2024/02/03 03:55:00;;;;;;;4.97;4.17;;;;;;;;;;5020024;28;20634;-86
2024/02/03 03:57:30;;;;;;;5.40;3.97;;;;;;;;;;5033994;28;20437;-85
2024/02/03 04:00:12;;;;;;;4.83;4.30;;;;;;;;;;5027549;28;20517;-83
2024/02/03 04:02:42;;;;;;;4.13;3.73;;;;;;;;;;5026462;28;20497;-86
2024/02/03 04:05:13;;;;;;;4.10;3.60;;;;;;;;;;5027081;28;20481;-85
2024/02/03 04:07:43;;;;;;;4.00;3.50;;;;;;;;;;5027340;28;20504;-84
2024/02/03 04:10:13;;;;;;;7.97;4.27;;;;;;;;;;5015973;28;20461;-84
2024/02/03 04:12:40;;;;;;;3.80;3.50;;;;;;;;;;5026633;28;20467;-84
2024/02/03 04:15:12;;;;;;;3.97;3.50;;;;;;;;;;5012288;28;20469;-84
2024/02/03 04:17:50;;;;;;;3.90;3.50;;;;;;;;;;5011025;28;20567;-85
2024/02/03 04:20:25;;;;;;;4.40;3.50;;;;;;;;;;5014359;28;20476;-85
2024/02/03 04:22:55;;;;;;;4.47;4.07;;;;;;;;;;5037187;28;20450;-85
2024/02/03 04:25:24;;;;;;;4.10;3.70;;;;;;;;;;5034000;28;20481;-84
2024/02/03 04:27:51;;;;;;;5.23;4.63;;;;;;;;;;5052750;28;20538;-83
2024/02/03 04:30:19;;;;;;;5.20;2.83;;;;;;;;;;5030843;28;20513;-85
2024/02/03 04:32:52;;;;;;;3.97;3.50;;;;;;;;;;5022186;28;20460;-84
2024/02/03 04:35:31;;;;;;;;;;;;;;;;;;;;;
2024/02/03 04:38:02;;;;;;;3.33;3.03;;;;;;;;;;5022251;28;21037;-83
2024/02/03 04:40:30;;;;;;;3.07;2.77;;;;;;;;;;5008315;28;20451;-84
2024/02/03 04:43:06;;;;;;;2.87;2.63;;;;;;;;;;5012899;28;20461;-84
2024/02/03 04:45:40;;;;;;;3.10;2.80;;;;;;;;;;5019108;28;20504;-84
2024/02/03 04:48:12;;;;;;;3.23;2.77;;;;;;;;;;5015508;28;20487;-85
2024/02/03 04:50:42;;;;;;;3.60;3.07;;;;;;;;;;5023234;28;20451;-84
2024/02/03 04:53:09;;;;;;;3.33;2.97;;;;;;;;;;5028193;28;20448;-85
2024/02/03 04:55:37;;;;;;;3.40;3.10;;;;;;;;;;5019116;28;20457;-85
2024/02/03 04:58:04;;;;;;;2.90;2.70;;;;;;;;;;5030663;28;20469;-84
2024/02/03 05:00:32;;;;;;;3.60;2.87;;;;;;;;;;5011178;28;20466;-85
2024/02/03 05:02:59;;;;;;;3.47;2.87;;;;;;;;;;5009592;28;20469;-84
2024/02/03 05:05:27;;;;;;;3.07;2.70;;;;;;;;;;5010150;28;20492;-84
2024/02/03 05:11:34;;;;;;;4.33;2.47;;;;;;;;;;4977771;28;20454;-84
2024/02/03 05:21:41;;;;;;;;;;;;;;;;;;;;;
2024/02/03 05:24:35;;;;;;;2.90;2.20;;;;;;;;;;4950492;28;20452;-83
2024/02/03 05:27:23;;;;;;;2.40;2.13;;;;;;;;;;5013672;28;20457;-84
2024/02/03 05:29:56;;;;;;;2.33;2.13;;;;;;;;;;5025212;28;20458;-85
2024/02/03 05:32:29;;;;;;;2.63;2.43;;;;;;;;;;5012871;28;20426;-81
2024/02/03 05:35:05;;;;;;;2.80;2.60;;;;;;;;;;5017989;28;20471;-85
2024/02/03 05:37:32;;;;;;;3.23;2.40;;;;;;;;;;5013293;28;20454;-84
2024/02/03 05:40:00;;;;;;;2.80;2.60;;;;;;;;;;5010192;28;20488;-84
2024/02/03 05:42:29;;;;;;;2.80;2.47;;;;;;;;;;5009446;28;20450;-84
2024/02/03 05:45:00;;;;;;;2.83;2.50;;;;;;;;;;5006828;28;20477;-85
2024/02/03 05:47:45;;;;;;;2.57;2.37;;;;;;;;;;5022184;28;20478;-84
2024/02/03 05:50:20;;;;;;;3.70;3.03;;;;;;;;;;5007764;28;20648;-87
2024/02/03 05:53:04;;;;;;;2.83;2.60;;;;;;;;;;5016618;28;20561;-85
2024/02/03 05:55:38;;;;;;;3.20;2.90;;;;;;;;;;5006495;28;20608;-85
2024/02/03 05:58:22;;;;;;;2.40;2.20;;;;;;;;;;5007520;28;20564;-86
2024/02/03 06:01:12;;;;;;;14.80;4.90;;;;;;;;;;5006238;28;20745;-85
2024/02/03 06:03:46;;;;;;;4.47;3.63;;;;;;;;;;4995825;28;20891;-84
2024/02/03 06:06:16;;;;;;;3.97;2.90;;;;;;;;;;5015642;28;20450;-85
2024/02/03 06:08:51;;;;;;;3.07;2.53;;;;;;;;;;5014023;28;20541;-85
2024/02/03 06:11:19;;;;;;;2.80;2.60;;;;;;;;;;5006942;28;20469;-87
2024/02/03 06:13:59;;;;;;;4.67;3.30;;;;;;;;;;5004495;28;20585;-85
2024/02/03 06:16:32;;;;;;;2.93;2.63;;;;;;;;;;5007989;28;20457;-82
2024/02/03 06:19:02;;;;;;;6.17;3.40;;;;;;;;;;5013594;28;20477;-84
2024/02/03 06:21:38;;;;;;;3.27;2.97;;;;;;;;;;5012418;28;20503;-85
2024/02/03 06:24:19;;;;;;;3.47;3.17;;;;;;;;;;5017331;28;21947;-84
2024/02/03 06:26:55;;;;;;;4.00;3.53;;;;;;;;;;5018212;28;20435;-84
2024/02/03 06:29:30;;;;;;;5.10;3.43;;;;;;;;;;5001649;28;20580;-85
2024/02/03 06:32:00;;;;;;;3.53;3.17;;;;;;;;;;5000540;28;20458;-86
2024/02/03 06:34:32;;;;;;;3.30;2.97;;;;;;;;;;5002660;28;20472;-84
2024/02/03 06:37:03;;;;;;;4.20;3.80;;;;;;;;;;5007097;28;21182;-85
2024/02/03 06:39:38;;;;;;;4.43;4.00;;;;;;;;;;5001291;28;20540;-85
2024/02/03 06:42:17;;;;;;;4.00;3.50;;;;;;;;;;5010387;28;20510;-85
2024/02/03 06:44:46;;;;;;;4.47;3.63;;;;;;;;;;5012954;28;20528;-84
2024/02/03 06:47:28;;;;;;;3.90;3.30;;;;;;;;;;5013423;28;20523;-84
2024/02/03 06:49:56;;;;;;;4.77;3.83;;;;;;;;;;5011924;28;20457;-84
2024/02/03 06:52:24;;;;;;;4.63;3.90;;;;;;;;;;5022550;28;20457;-86
2024/02/03 06:55:01;;;;;;;4.20;3.60;;;;;;;;;;5008692;28;20557;-85
2024/02/03 06:57:33;;;;;;;4.47;4.07;;;;;;;;;;5019482;28;20462;-86
2024/02/03 07:00:19;;;;;;;5.17;4.20;;;;;;;;;;5010279;28;20470;-85
2024/02/03 07:02:53;;;;;;;6.33;4.43;;;;;;;;;;5019846;28;20473;-85
2024/02/03 07:05:22;;;;;;;5.67;4.40;;;;;;;;;;5006037;28;20452;-85
2024/02/03 07:07:56;;;;;;;5.17;4.07;;;;;;;;;;5005803;28;20501;-84
2024/02/03 07:10:31;;;;;;;4.73;4.20;;;;;;;;;;5017811;28;20527;-84
2024/02/03 07:13:14;;;;;;;4.10;3.70;;;;;;;;;;5019689;28;22639;-86
2024/02/03 07:16:04;;;;;;;4.93;4.33;;;;;;;;;;5008617;28;20507;-85
2024/02/03 07:18:48;;;;;;;4.87;4.20;;;;;;;;;;5020266;28;20516;-85
2024/02/03 07:21:34;;;;;;;4.07;3.50;;;;;;;;;;5006825;28;20455;-86
2024/02/03 07:24:05;;;;;;;4.13;3.70;;;;;;;;;;5007111;28;20458;-85
2024/02/03 07:26:50;;;;;;;4.00;3.60;;;;;;;;;;5003848;28;20455;-85
2024/02/03 07:29:38;;;;;;;3.90;3.50;;;;;;;;;;5015890;28;20489;-87
2024/02/03 07:32:22;;;;;;;4.13;3.33;;;;;;;;;;5029820;28;20589;-86
2024/02/03 07:35:20;;;;;;;3.77;3.47;;;;;;;;;;5022062;28;20477;-84
2024/02/03 07:37:50;;;;;;;3.70;3.20;;;;;;;;;;5000751;28;20484;-85
2024/02/03 07:40:21;;;;;;;6.20;2.93;;;;;;;;;;5018407;28;20517;-85
2024/02/03 07:42:50;;;;;;;3.57;3.27;;;;;;;;;;5009274;28;20491;-84
2024/02/03 07:45:33;;;;;;;4.13;3.73;;;;;;;;;;5015498;28;20554;-84
2024/02/03 07:48:15;;;;;;;4.33;3.60;;;;;;;;;;5013381;28;20554;-85
2024/02/03 07:50:51;;;;;;;3.43;3.13;;;;;;;;;;5016562;28;20453;-84
2024/02/03 07:53:23;;;;;;;3.73;3.10;;;;;;;;;;5034581;28;20452;-85
2024/02/03 07:56:03;;;;;;;5.07;3.90;;;;;;;;;;5017629;28;20599;-85
2024/02/03 07:58:51;;;;;;;3.60;3.30;;;;;;;;;;5013527;28;20481;-84
2024/02/03 08:01:20;;;;;;;4.00;3.30;;;;;;;;;;5012421;28;20450;-83
2024/02/03 08:04:00;;;;;;;3.77;3.43;;;;;;;;;;5019183;28;20472;-85
2024/02/03 08:06:31;;;;;;;2.93;2.57;;;;;;;;;;5027316;28;20462;-83
2024/02/03 08:09:03;;;;;;;4.33;3.93;;;;;;;;;;5011939;28;20503;-83
2024/02/03 08:11:44;;;;;;;4.40;2.97;;;;;;;;;;5017009;28;22168;-84
2024/02/03 08:14:20;;;;;;;3.80;3.40;;;;;;;;;;5017269;28;20472;-83
2024/02/03 08:17:00;;;;;;;3.80;3.50;;;;;;;;;;5025197;28;21879;-85
2024/02/03 08:19:42;;;;;;;5.67;3.47;;;;;;;;;;5013084;28;20548;-85
2024/02/03 08:22:21;;;;;;;5.03;3.20;;;;;;;;;;5009492;28;20453;-85
2024/02/03 08:24:52;;;;;;;4.53;3.43;;;;;;;;;;5009536;28;20453;-84
2024/02/03 08:27:20;;;;;;;3.40;3.13;;;;;;;;;;5025338;28;20534;-84
2024/02/03 08:29:50;;;;;;;5.27;3.73;;;;;;;;;;5011322;28;20454;-83
2024/02/03 08:32:30;;;;;;;3.97;3.20;;;;;;;;;;5013815;28;20537;-85
2024/02/03 08:35:08;;;;;;;3.57;3.20;;;;;;;;;;5011034;28;20511;-85
2024/02/03 08:37:52;;;;;;;2.73;2.53;;;;;;;;;;5026768;28;20501;-86
2024/02/03 08:40:22;;;;;;;18.77;4.20;;;;;;;;;;5007526;28;21275;-85
2024/02/03 08:42:54;;;;;;;3.00;2.80;;;;;;;;;;5006908;28;21141;-83
2024/02/03 08:45:50;;;;;;;3.43;3.10;;;;;;;;;;4980266;28;20547;-84
2024/02/03 08:48:25;;;;;;;3.53;3.23;;;;;;;;;;5007869;28;20501;-86
2024/02/03 08:51:10;;;;;;;5.80;4.23;;;;;;;;;;5005386;28;20441;-83
2024/02/03 08:53:50;;;;;;;;;;;;;;;;;;;;;
2024/02/03 08:56:29;;;;;;;2.30;2.20;;;;;;;;;;5014708;28;21453;-84
2024/02/03 08:59:19;;;;;;;4.93;3.20;;;;;;;;;;4906372;29;20460;-84
2024/02/03 09:01:54;;;;;;;2.90;2.70;;;;;;;;;;4914747;29;20989;-86
2024/02/03 09:04:33;;;;;;;3.10;2.57;;;;;;;;;;4911397;29;20531;-84
2024/02/03 09:07:09;;;;;;;2.70;2.50;;;;;;;;;;4902295;29;20535;-84
2024/02/03 09:10:00;;;;;;;2.87;2.53;;;;;;;;;;4911534;29;20470;-83
2024/02/03 09:12:36;;;;;;;2.50;2.27;;;;;;;;;;4909836;29;20490;-82
2024/02/03 09:15:07;;;;;;;2.53;2.33;;;;;;;;;;5008596;28;20461;-84
2024/02/03 09:20:35;;;;;;;2.60;2.40;;;;;;;;;;5006731;28;21128;-85
2024/02/03 09:23:14;;;;;;;3.47;3.17;;;;;;;;;;5007441;28;20437;-83
2024/02/03 09:26:04;;;;;;;2.53;2.27;;;;;;;;;;5013450;28;20431;-83
2024/02/03 09:28:37;;;;;;;7.27;3.23;;;;;;;;;;5014032;28;20478;-84
2024/02/03 09:31:20;;;;;;;3.30;2.67;;;;;;;;;;5011523;28;20490;-85
2024/02/03 09:33:50;;;;;;;6.40;4.63;;;;;;;;;;5005452;28;20523;-85
2024/02/03 09:36:24;;;;;;;3.57;3.27;;;;;;;;;;5009487;28;20474;-84
2024/02/03 09:39:02;;;;;;;6.83;5.03;;;;;;;;;;5011566;28;20485;-85
2024/02/03 09:41:42;;;;;;;3.70;2.50;;;;;;;;;;5012646;28;20466;-84
2024/02/03 09:44:30;;;;;;;3.40;3.10;;;;;;;;;;5013154;28;20574;-86
2024/02/03 09:47:18;;;;;;;3.30;3.00;;;;;;;;;;5009374;28;20449;-82
2024/02/03 09:50:02;;;;;;;3.83;3.53;;;;;;;;;;5010627;28;20498;-86
2024/02/03 09:52:52;;;;;;;4.27;2.53;;;;;;;;;;5028711;28;20430;-84
2024/02/03 09:55:54;;;;;;;4.13;3.00;;;;;;;;;;5033734;28;20438;-84
2024/02/03 09:58:32;;;;;;;4.30;3.60;;;;;;;;;;5037418;28;20552;-84
2024/02/03 10:01:18;;;;;;;2.97;2.77;;;;;;;;;;5047858;28;20500;-84
2024/02/03 10:04:03;;;;;;;3.40;3.10;;;;;;;;;;5036289;28;20547;-85
2024/02/03 10:07:02;;;;;;;3.63;3.33;;;;;;;;;;5036893;28;20436;-86
2024/02/03 10:09:35;;;;;;;4.00;3.40;;;;;;;;;;5027068;28;20496;-84
2024/02/03 10:12:19;;;;;;;3.90;3.10;;;;;;;;;;5011780;28;20513;-84
2024/02/03 10:15:07;;;;;;;5.60;3.40;;;;;;;;;;5036285;28;20457;-84
2024/02/03 10:17:58;;;;;;;3.30;3.00;;;;;;;;;;5012823;28;20466;-85
2024/02/03 10:20:32;;;;;;;3.03;2.83;;;;;;;;;;5014961;28;20485;-85
2024/02/03 10:23:02;;;;;;;3.80;3.23;;;;;;;;;;5029644;28;21300;-84
2024/02/03 10:25:36;;;;;;;4.80;2.73;;;;;;;;;;5035283;28;20442;-83
2024/02/03 10:28:18;;;;;;;4.23;3.03;;;;;;;;;;5015231;28;20469;-85
2024/02/03 10:30:51;;;;;;;3.20;2.90;;;;;;;;;;5017998;28;20449;-85
2024/02/03 10:33:31;;;;;;;3.07;2.50;;;;;;;;;;5021618;28;20691;-84
2024/02/03 10:36:12;;;;;;;4.30;2.87;;;;;;;;;;5024342;28;20466;-86
2024/02/03 10:39:03;;;;;;;4.23;3.13;;;;;;;;;;5014762;28;20485;-83
2024/02/03 10:42:12;;;;;;;2.37;2.17;;;;;;;;;;5032660;28;20534;-83
2024/02/03 10:45:24;;;;;;;2.80;2.60;;;;;;;;;;5026752;28;20908;-85
2024/02/03 10:48:06;;;;;;;2.60;2.40;;;;;;;;;;5024181;28;20500;-86
2024/02/03 10:52:03;;;;;;;3.07;2.87;;;;;;;;;;5027935;28;20952;-84
2024/02/03 10:55:06;;;;;;;;;;;;;;;;;;;;;
2024/02/03 10:58:11;;;;;;;4.50;2.93;;;;;;;;;;5017026;28;20725;-84
2024/02/03 11:01:01;;;;;;;5.00;2.90;;;;;;;;;;5028572;28;20469;-85
2024/02/03 11:03:54;;;;;;;4.17;3.07;;;;;;;;;;5031494;28;20479;-84
2024/02/03 11:10:36;;;;;;;2.90;2.70;;;;;;;;;;4945298;29;20470;-86
2024/02/03 11:13:51;;;;;;;3.83;3.53;;;;;;;;;;4947710;29;20470;-87
2024/02/03 11:19:57;;;;;;;4.83;3.23;;;;;;;;;;4949450;28;20444;-84
2024/02/03 11:22:34;;;;;;;3.10;2.83;;;;;;;;;;4957019;28;20445;-84
2024/02/03 11:28:44;;;;;;;6.03;3.73;;;;;;;;;;4952096;28;20468;-83
2024/02/03 11:31:49;;;;;;;4.00;3.60;;;;;;;;;;4966510;28;20468;-84
2024/02/03 11:34:37;;;;;;;4.80;3.17;;;;;;;;;;4970116;28;20466;-85
2024/02/03 11:37:36;;;;;;;3.87;3.43;;;;;;;;;;4960443;28;20516;-87
2024/02/03 11:40:32;;;;;;;5.27;3.80;;;;;;;;;;4983709;28;20513;-84
2024/02/03 11:43:45;;;;;;;3.50;3.20;;;;;;;;;;4893723;29;20455;-85
2024/02/03 11:46:57;;;;;;;3.00;2.60;;;;;;;;;;4921845;29;20466;-85
2024/02/03 11:49:52;;;;;;;3.70;3.00;;;;;;;;;;4920741;29;20494;-85
2024/02/03 11:52:37;;;;;;;2.93;2.63;;;;;;;;;;4924099;29;20473;-85
2024/02/03 11:55:15;;;;;;;3.47;3.13;;;;;;;;;;4922089;29;20525;-86
2024/02/03 11:58:26;;;;;;;5.53;2.93;;;;;;;;;;4916622;29;20499;-87
2024/02/03 12:01:32;;;;;;;4.33;3.07;;;;;;;;;;4910257;29;20495;-87
2024/02/03 12:08:02;;;;;;;4.40;2.97;;;;;;;;;;4899782;29;20507;-84
2024/02/03 12:11:27;;;;;;;3.43;2.70;;;;;;;;;;4909585;29;20523;-85
2024/02/03 12:14:09;;;;;;;2.80;2.23;;;;;;;;;;4839258;29;20465;-86
2024/02/03 12:17:23;;;;;;;2.90;2.13;;;;;;;;;;4831907;29;20477;-85
2024/02/03 12:20:00;;;;;;;2.53;2.33;;;;;;;;;;4841308;29;20474;-85
2024/02/03 12:22:51;;;;;;;2.13;2.03;;;;;;;;;;4931199;28;20525;-85
2024/02/03 12:25:27;;;;;;;2.60;2.40;;;;;;;;;;4965982;28;20468;-85
2024/02/03 12:28:07;;;;;;;2.97;2.53;;;;;;;;;;4961909;28;20536;-85
2024/02/03 12:31:20;;;;;;;4.53;2.43;;;;;;;;;;4914264;28;20545;-86
2024/02/03 12:34:06;;;;;;;2.30;2.10;;;;;;;;;;4945415;28;20537;-86
2024/02/03 12:37:01;;;;;;;2.33;2.13;;;;;;;;;;4949345;28;20497;-86
2024/02/03 12:48:58;;;;;;;1.90;1.80;;;;;;;;;;4950450;28;20481;-84
2024/02/03 12:55:11;;;;;;;3.23;2.23;;;;;;;;;;4950137;28;20485;-85
2024/02/03 12:57:58;;;;;;;3.03;2.63;;;;;;;;;;4965692;28;20453;-86
2024/02/03 13:00:41;;;;;;;6.70;2.60;;;;;;;;;;4968537;28;20495;-85
2024/02/03 13:03:15;;;;;;;2.77;2.40;;;;;;;;;;4967893;28;20895;-84
2024/02/03 13:06:11;;;;;;;2.70;2.50;;;;;;;;;;4964834;28;20433;-85
2024/02/03 13:09:07;;;;;;;3.20;3.00;;;;;;;;;;4954339;28;20560;-86
2024/02/03 13:11:55;;;;;;;3.47;2.80;;;;;;;;;;4969768;28;21193;-84
2024/02/03 13:14:45;;;;;;;3.30;3.10;;;;;;;;;;4951368;28;20461;-82
2024/02/03 13:17:24;;;;;;;3.33;3.03;;;;;;;;;;4969026;28;20460;-85
2024/02/03 13:20:08;;;;;;;3.37;3.17;;;;;;;;;;4955171;28;21084;-84
2024/02/03 13:23:00;;;;;;;3.70;3.40;;;;;;;;;;4943720;28;20481;-86
2024/02/03 13:25:43;;;;;;;3.60;3.30;;;;;;;;;;4946415;28;20473;-85
2024/02/03 13:28:30;;;;;;;3.70;3.40;;;;;;;;;;4947467;28;20496;-85
2024/02/03 13:31:13;;;;;;;4.57;4.17;;;;;;;;;;4948124;28;20453;-88
2024/02/03 13:34:03;;;;;;;3.50;3.20;;;;;;;;;;4949105;28;20484;-83
2024/02/03 13:37:15;;;;;;;5.00;2.87;;;;;;;;;;4950048;28;20559;-84
2024/02/03 13:40:07;;;;;;;3.57;3.27;;;;;;;;;;4935022;28;20453;-84
2024/02/03 13:42:37;;;;;;;3.77;2.87;;;;;;;;;;4966584;28;20459;-83
2024/02/03 13:45:41;;;;;;;3.70;3.40;;;;;;;;;;4960484;28;20566;-84
2024/02/03 13:48:20;;;;;;;3.27;3.07;;;;;;;;;;4963433;28;20521;-86
2024/02/03 13:51:05;;;;;;;3.10;2.90;;;;;;;;;;4951705;28;20465;-86
2024/02/03 13:54:04;;;;;;;4.90;3.13;;;;;;;;;;4957298;28;20804;-85
2024/02/03 14:02:57;;;;;;;3.07;2.77;;;;;;;;;;4949398;28;20449;-86
2024/02/03 14:05:51;;;;;;;3.30;3.10;;;;;;;;;;4960090;28;20544;-86
2024/02/03 14:12:03;;;;;;;2.93;2.73;;;;;;;;;;4946280;28;20477;-85
2024/02/03 14:14:55;;;;;;;;;;;;;;;;;;;;;
2024/02/03 14:18:05;;;;;;;4.20;3.40;;;;;;;;;;4953042;28;20461;-87
2024/02/03 14:20:57;;;;;;;4.03;2.90;;;;;;;;;;4962672;28;21068;-84
2024/02/03 14:24:10;;;;;;;3.80;3.50;;;;;;;;;;4950338;28;20424;-84
2024/02/03 14:27:15;;;;;;;4.77;3.20;;;;;;;;;;4961283;28;20465;-86
2024/02/03 14:30:07;;;;;;;3.63;2.90;;;;;;;;;;4933900;28;20523;-85
2024/02/03 14:33:06;;;;;;;2.90;2.70;;;;;;;;;;4961203;28;20477;-83
2024/02/03 14:36:22;;;;;;;3.87;3.63;;;;;;;;;;4891833;29;20464;-86
2024/02/03 14:39:18;;;;;;;6.33;4.20;;;;;;;;;;4937097;28;20730;-86
2024/02/03 14:42:24;;;;;;;3.67;3.33;;;;;;;;;;4962867;28;20491;-86
2024/02/03 14:44:56;;;;;;;3.63;3.37;;;;;;;;;;4949249;28;20871;-83
2024/02/03 14:47:39;;;;;;;2.73;2.53;;;;;;;;;;4963373;28;20575;-85
2024/02/03 14:50:15;;;;;;;3.53;3.23;;;;;;;;;;4965085;28;21304;-86
2024/02/03 14:53:17;;;;;;;3.50;3.20;;;;;;;;;;4963990;28;20481;-85
2024/02/03 14:55:57;;;;;;;3.63;2.80;;;;;;;;;;4952267;28;20622;-85
2024/02/03 14:58:53;;;;;;;4.00;3.60;;;;;;;;;;4967070;28;20859;-86
2024/02/03 15:02:12;;;;;;;3.10;2.90;;;;;;;;;;4965447;28;20476;-85
2024/02/03 15:05:10;;;;;;;3.80;3.50;;;;;;;;;;4960502;28;20443;-86
2024/02/03 15:08:02;;;;;;;4.40;4.00;;;;;;;;;;4967328;28;20539;-86
2024/02/03 15:10:38;;;;;;;4.50;4.10;;;;;;;;;;4973723;28;20456;-83
2024/02/03 15:13:49;;;;;;;4.20;3.90;;;;;;;;;;4939650;28;20522;-83
2024/02/03 15:16:29;;;;;;;4.93;4.43;;;;;;;;;;4976528;28;20680;-82
2024/02/03 15:19:42;;;;;;;;;;;;;;;;;;;;;
2024/02/03 15:22:20;;;;;;;16.50;13.70;;;;;;;;;;4955599;28;20618;-86
2024/02/03 15:31:57;;;;;;;3.57;3.33;;;;;;;;;;4938486;28;20465;-86
2024/02/03 15:34:51;;;;;;;4.73;3.77;;;;;;;;;;4887000;29;20448;-85
2024/02/03 15:38:01;;;;;;;5.50;4.90;;;;;;;;;;4891440;29;20463;-85
2024/02/03 15:41:02;;;;;;;4.00;3.80;;;;;;;;;;4891093;29;20523;-84
2024/02/03 15:44:08;;;;;;;;;;;;;;;;;;;;;
2024/02/03 15:47:02;;;;;;;4.90;4.00;;;;;;;;;;4947482;29;20436;-85
2024/02/03 15:49:45;;;;;;;4.40;4.00;;;;;;;;;;4922473;29;20577;-87
2024/02/03 15:52:37;;;;;;;3.90;3.60;;;;;;;;;;4960452;28;20446;-88
2024/02/03 15:55:34;;;;;;;;;;;;;;;;;;;;;
2024/02/03 15:58:42;;;;;;;4.20;3.27;;;;;;;;;;4965457;28;21021;-85
2024/02/03 16:01:27;;;;;;;4.00;3.67;;;;;;;;;;4978201;28;20510;-85
2024/02/03 16:04:05;;;;;;;4.40;4.00;;;;;;;;;;4979537;28;20457;-85
2024/02/03 16:06:42;;;;;;;4.53;4.13;;;;;;;;;;4970984;28;20476;-84
2024/02/03 16:09:10;;;;;;;5.27;4.77;;;;;;;;;;4949836;28;20479;-87
2024/02/03 16:12:00;;;;;;;4.83;4.03;;;;;;;;;;4953273;28;20484;-85
2024/02/03 16:14:46;;;;;;;4.63;4.13;;;;;;;;;;4950731;28;20700;-84
2024/02/03 16:17:42;;;;;;;4.50;4.10;;;;;;;;;;4950240;28;20457;-85
2024/02/03 16:20:32;;;;;;;4.83;4.33;;;;;;;;;;4984406;28;20457;-84
2024/02/03 16:23:11;;;;;;;4.90;4.10;;;;;;;;;;4969641;28;20448;-84
2024/02/03 16:25:49;;;;;;;4.53;4.10;;;;;;;;;;4981795;28;20489;-84
2024/02/03 16:28:38;;;;;;;4.13;3.50;;;;;;;;;;4963090;28;20491;-85
2024/02/03 16:31:13;;;;;;;5.97;4.47;;;;;;;;;;4958254;28;20979;-84
2024/02/03 16:34:39;;;;;;;;;;;;;;;;;;;;;
2024/02/03 16:40:10;;;;;;;4.73;4.27;;;;;;;;;;4662871;26;20469;-85
2024/02/03 16:43:02;;;;;;;50.43;30.30;;;;;;;;;;5035975;28;20505;-85
2024/02/03 16:46:13;;;;;;;6.43;4.87;;;;;;;;;;5015329;28;20446;-85
2024/02/03 16:48:47;;;;;;;4.60;4.30;;;;;;;;;;5012528;28;20574;-87
2024/02/03 16:51:44;;;;;;;6.80;6.10;;;;;;;;;;5000277;28;20468;-86
2024/02/03 16:54:40;;;;;;;;;;;;;;;;;;;;;
2024/02/03 16:57:36;;;;;;;5.80;5.20;;;;;;;;;;5008977;28;20517;-85
2024/02/03 17:00:18;;;;;;;6.00;5.40;;;;;;;;;;4990988;28;20835;-84
2024/02/03 17:03:12;;;;;;;5.70;5.20;;;;;;;;;;4994154;28;21354;-85
2024/02/03 17:06:10;;;;;;;5.70;5.20;;;;;;;;;;4995681;28;20512;-85
2024/02/03 17:08:48;;;;;;;4.80;4.40;;;;;;;;;;4993471;28;20537;-86
2024/02/03 17:11:39;;;;;;;5.20;4.70;;;;;;;;;;4990139;28;20466;-84
2024/02/03 17:14:19;;;;;;;5.47;4.87;;;;;;;;;;5009031;28;20509;-87